Doon, Iowa
Current Conditions -  °F | °C
As of 12:35 AM on Monday 26 Jan 2015 (Local Time) from KSHL Reporting Station
Scattered Clouds Scattered Clouds  
Wind Chill: -4°   Ceiling: Unl
Heat Index:   Visibility: 10mi
Dew Point:   Wind: 8mph
Humidity: 100%   Direction: 210°SSW
Pressure: 29.94"   Gusts: NA
Location:  43.28°N, 96.23°W
Report Text: KSHL 260635Z AUTO 21007KT 10SM SCT023 M00/M00 A2994 RMK AO2
Loading
Personal Weather Stations






























Interactive Weather Map New forecast layout! Learn more

10-Day Weather Forecast

Advertisements
Track Severe Weather on mobile